createdAt,value
2017-07-11T00:02:08.920Z,9.00
2017-07-11T00:04:36.384Z,9.77
2017-07-11T00:07:03.937Z,9.10
2017-07-11T00:09:31.382Z,8.97
2017-07-11T00:11:58.951Z,9.90
2017-07-11T00:14:26.425Z,8.83
2017-07-11T00:16:54.672Z,8.80
2017-07-11T00:19:22.147Z,8.03
2017-07-11T00:21:49.679Z,7.70
2017-07-11T00:24:17.144Z,8.40
2017-07-11T00:26:44.715Z,7.37
2017-07-11T00:29:12.198Z,7.90
2017-07-11T00:31:39.671Z,8.20
2017-07-11T00:34:07.171Z,8.17
2017-07-11T00:36:34.753Z,8.07
2017-07-11T00:39:02.206Z,8.17
2017-07-11T00:41:29.758Z,7.63
2017-07-11T00:43:57.223Z,8.00
2017-07-11T00:46:24.773Z,7.93
2017-07-11T00:48:52.345Z,7.93
2017-07-11T00:51:20.611Z,8.37
2017-07-11T00:53:48.090Z,8.23
2017-07-11T00:56:16.320Z,9.17
2017-07-11T00:58:43.780Z,8.50
2017-07-11T01:01:11.269Z,9.30
2017-07-11T01:03:39.585Z,9.50
2017-07-11T01:06:07.131Z,8.87
2017-07-11T01:08:34.652Z,8.90
2017-07-11T01:11:02.110Z,8.27
2017-07-11T01:13:29.566Z,9.87
2017-07-11T01:15:57.833Z,11.00
2017-07-11T01:18:25.409Z,11.13
2017-07-11T01:20:53.689Z,9.90
2017-07-11T01:23:21.954Z,9.80
2017-07-11T01:25:49.415Z,10.80
2017-07-11T01:28:17.679Z,10.47
2017-07-11T01:30:45.260Z,10.40
2017-07-11T01:33:13.495Z,11.17
2017-07-11T01:35:41.718Z,11.10
2017-07-11T01:38:09.959Z,11.30
2017-07-11T01:40:37.429Z,10.70
2017-07-11T01:43:05.653Z,11.97
2017-07-11T01:45:33.229Z,12.00
2017-07-11T01:48:00.709Z,11.30
2017-07-11T01:50:28.270Z,11.83
2017-07-11T01:52:55.838Z,13.27
2017-07-11T01:55:24.098Z,12.50
2017-07-11T01:57:52.646Z,12.03
2017-07-11T02:00:20.114Z,11.83
2017-07-11T02:02:47.599Z,13.93
2017-07-11T02:05:15.847Z,12.80
2017-07-11T02:07:43.326Z,13.03
2017-07-11T02:10:10.883Z,12.10
2017-07-11T02:12:38.536Z,14.70
2017-07-11T02:15:06.180Z,13.23
2017-07-11T02:17:33.669Z,13.63
2017-07-11T02:20:02.927Z,14.83
2017-07-11T02:22:30.450Z,13.93
2017-07-11T02:24:57.981Z,12.90
2017-07-11T02:27:25.446Z,12.93
2017-07-11T02:29:53.684Z,12.90
2017-07-11T02:32:21.168Z,13.20
2017-07-11T02:34:48.640Z,14.00
2017-07-11T02:37:16.906Z,14.10
2017-07-11T02:39:45.142Z,13.53
2017-07-11T02:42:12.633Z,14.53
2017-07-11T02:44:40.095Z,12.63
2017-07-11T02:47:08.366Z,12.57
2017-07-11T02:49:35.926Z,12.97
2017-07-11T02:52:03.435Z,14.20
2017-07-11T02:54:30.895Z,13.23
2017-07-11T02:56:58.388Z,13.40
2017-07-11T02:59:25.859Z,14.17
2017-07-11T03:01:53.323Z,13.97
2017-07-11T03:04:21.567Z,14.07
2017-07-11T03:06:49.143Z,14.80
2017-07-11T03:09:16.606Z,15.03
2017-07-11T03:11:44.843Z,13.47
2017-07-11T03:14:12.339Z,14.77
2017-07-11T03:16:39.899Z,14.30
2017-07-11T03:19:07.360Z,13.30
2017-07-11T03:21:35.630Z,14.50
2017-07-11T03:24:03.878Z,14.07
2017-07-11T03:26:31.366Z,15.50
2017-07-11T03:29:00.682Z,13.50
2017-07-11T03:31:28.142Z,13.00
2017-07-11T03:33:55.667Z,13.57
2017-07-11T03:36:23.183Z,15.13
2017-07-11T03:38:50.686Z,13.67
2017-07-11T03:41:18.238Z,13.90
2017-07-11T03:43:45.699Z,16.30
2017-07-11T03:46:13.270Z,15.57
2017-07-11T03:48:41.535Z,14.47
2017-07-11T03:51:09.820Z,15.23
2017-07-11T03:53:38.088Z,13.90
2017-07-11T03:56:05.554Z,13.27
2017-07-11T03:58:33.808Z,15.57
2017-07-11T04:01:01.286Z,15.40
2017-07-11T04:03:29.550Z,15.60
2017-07-11T04:05:57.027Z,14.17
2017-07-11T04:08:25.387Z,14.30
2017-07-11T04:10:53.653Z,14.40
2017-07-11T04:13:21.118Z,14.67
2017-07-11T04:15:49.394Z,12.60
2017-07-11T04:18:16.867Z,14.00
2017-07-11T04:20:45.108Z,16.90
2017-07-11T04:23:12.698Z,14.83
2017-07-11T04:25:40.946Z,16.20
2017-07-11T04:28:08.411Z,16.23
2017-07-11T04:30:35.879Z,14.27
2017-07-11T04:33:04.115Z,15.60
2017-07-11T04:35:31.585Z,14.43
2017-07-11T04:37:59.043Z,13.27
2017-07-11T04:40:26.516Z,14.37
2017-07-11T04:42:54.025Z,13.97
2017-07-11T04:45:21.498Z,16.43
2017-07-11T04:47:48.971Z,15.20
2017-07-11T04:50:16.447Z,13.43
2017-07-11T04:52:43.933Z,15.50
2017-07-11T04:55:11.408Z,12.70
2017-07-11T04:57:38.880Z,15.23
2017-07-11T05:00:06.355Z,14.00
2017-07-11T05:02:33.839Z,14.23
2017-07-11T05:05:02.075Z,14.33
2017-07-11T05:07:29.557Z,13.60
2017-07-11T05:09:57.025Z,13.63
2017-07-11T05:12:25.256Z,14.43
2017-07-11T05:14:52.727Z,13.93
2017-07-11T05:17:20.186Z,13.77
2017-07-11T05:19:47.695Z,14.73
2017-07-11T05:22:15.177Z,14.47
2017-07-11T05:24:42.670Z,13.70
2017-07-11T05:27:10.137Z,16.03
2017-07-11T05:29:38.376Z,14.17
2017-07-11T05:32:05.838Z,15.70
2017-07-11T05:34:33.298Z,13.60
2017-07-11T05:37:00.798Z,15.20
2017-07-11T05:39:28.360Z,15.80
2017-07-11T05:41:55.824Z,15.97
2017-07-11T05:44:23.298Z,14.40
2017-07-11T05:46:50.767Z,14.47
2017-07-11T05:49:18.240Z,14.20
2017-07-11T05:51:45.707Z,14.27
2017-07-11T05:54:13.261Z,12.70
2017-07-11T05:56:40.734Z,13.37
2017-07-11T05:59:08.247Z,14.10
2017-07-11T06:01:35.706Z,10.70
2017-07-11T06:04:03.181Z,10.73
2017-07-11T06:06:30.657Z,9.90
2017-07-11T06:08:58.114Z,10.47
2017-07-11T06:11:25.575Z,9.30
2017-07-11T06:13:53.337Z,9.37
2017-07-11T06:16:20.896Z,7.80
2017-07-11T06:18:48.367Z,7.90
2017-07-11T06:21:16.581Z,8.03
2017-07-11T06:23:44.054Z,7.03
2017-07-11T06:26:11.528Z,7.30
2017-07-11T06:28:39.015Z,6.50
2017-07-11T06:31:06.471Z,6.47
2017-07-11T06:33:34.707Z,5.93
2017-07-11T06:36:02.175Z,5.47
2017-07-11T06:38:29.648Z,7.13
2017-07-11T06:40:57.871Z,6.17
2017-07-11T06:43:25.351Z,5.67
2017-07-11T06:45:52.823Z,5.83
2017-07-11T06:48:20.295Z,6.40
2017-07-11T06:50:47.795Z,6.70
2017-07-11T06:53:15.268Z,7.53
2017-07-11T06:55:42.762Z,7.37
2017-07-11T06:58:11.000Z,6.23
2017-07-11T07:00:38.496Z,6.73
2017-07-11T07:03:05.949Z,5.70
2017-07-11T07:05:33.415Z,5.00
2017-07-11T07:08:01.638Z,4.93
2017-07-11T07:10:29.090Z,4.50
2017-07-11T07:12:56.576Z,4.90
2017-07-11T07:15:24.024Z,4.70
2017-07-11T07:17:51.501Z,4.33
2017-07-11T07:20:18.978Z,4.83
2017-07-11T07:22:46.433Z,5.20
2017-07-11T07:25:13.893Z,4.70
2017-07-11T07:27:41.355Z,4.63
2017-07-11T07:30:08.875Z,4.17
2017-07-11T07:32:36.337Z,3.63
2017-07-11T07:35:04.023Z,3.40
2017-07-11T07:37:31.468Z,3.00
2017-07-11T07:39:58.959Z,3.10
2017-07-11T07:42:26.419Z,3.00
2017-07-11T07:44:53.884Z,2.90
2017-07-11T07:47:21.342Z,2.47
2017-07-11T07:49:48.813Z,2.60
2017-07-11T07:52:16.288Z,3.10
2017-07-11T07:54:43.744Z,2.57
2017-07-11T07:57:11.213Z,3.37
2017-07-11T07:59:38.687Z,2.30
2017-07-11T08:02:06.901Z,3.27
2017-07-11T08:04:34.352Z,3.00
2017-07-11T08:07:01.819Z,3.40
2017-07-11T08:09:29.265Z,3.63
2017-07-11T08:11:56.715Z,3.17
2017-07-11T08:14:24.178Z,2.60
2017-07-11T08:16:51.635Z,2.70
2017-07-11T08:19:19.090Z,3.37
2017-07-11T08:21:46.557Z,2.90
2017-07-11T08:24:14.017Z,3.43
2017-07-11T08:26:41.513Z,3.33
2017-07-11T08:29:08.984Z,3.00
2017-07-11T08:31:37.229Z,2.70
2017-07-11T08:34:04.676Z,3.37
2017-07-11T08:36:32.126Z,3.63
2017-07-11T08:38:59.602Z,3.83
2017-07-11T08:41:27.058Z,4.07
2017-07-11T08:43:54.557Z,3.60
2017-07-11T08:46:22.027Z,3.80
2017-07-11T08:48:49.489Z,3.97
2017-07-11T08:51:16.966Z,3.97
2017-07-11T08:53:44.406Z,3.40
2017-07-11T08:56:11.875Z,4.20
2017-07-11T08:58:39.334Z,3.20
2017-07-11T09:01:06.790Z,4.20
2017-07-11T09:03:34.259Z,3.83
2017-07-11T09:06:01.710Z,4.23
2017-07-11T09:08:29.175Z,3.80
2017-07-11T09:10:56.683Z,3.80
2017-07-11T09:13:24.156Z,4.10
2017-07-11T09:15:54.840Z,3.90
2017-07-11T09:18:22.915Z,3.70
2017-07-11T09:20:54.091Z,3.90
2017-07-11T09:23:21.969Z,4.20
2017-07-11T09:25:49.540Z,3.97
2017-07-11T09:28:18.252Z,3.90
2017-07-11T09:30:46.502Z,3.80
2017-07-11T09:33:16.572Z,3.23
2017-07-11T09:35:45.977Z,3.60
2017-07-11T09:38:15.960Z,3.63
2017-07-11T09:40:43.685Z,4.93
2017-07-11T09:43:12.302Z,4.33
2017-07-11T09:45:40.165Z,6.13
2017-07-11T09:48:08.461Z,6.13
2017-07-11T09:50:36.703Z,6.80
2017-07-11T09:53:04.460Z,7.07
2017-07-11T09:55:32.509Z,3.00
2017-07-11T09:58:00.711Z,2.80
2017-07-11T10:00:30.167Z,3.70
2017-07-11T10:02:58.988Z,5.27
2017-07-11T10:05:29.088Z,4.53
2017-07-11T10:07:58.109Z,5.00
2017-07-11T10:10:26.410Z,6.27
2017-07-11T10:12:54.353Z,5.57
2017-07-11T10:15:22.967Z,6.30
2017-07-11T10:17:52.288Z,6.67
2017-07-11T10:20:22.447Z,6.10
2017-07-11T10:22:51.331Z,6.47
2017-07-11T10:25:19.853Z,6.10
2017-07-11T10:27:47.515Z,6.40
2017-07-11T10:30:15.151Z,6.80
2017-07-11T10:32:42.964Z,8.07
2017-07-11T10:35:10.562Z,8.97
2017-07-11T10:37:38.168Z,8.70
2017-07-11T10:40:06.687Z,8.23
2017-07-11T10:42:34.282Z,8.23
2017-07-11T10:45:02.199Z,8.00
2017-07-11T10:47:31.139Z,7.77
2017-07-11T10:49:58.613Z,7.87
2017-07-11T10:52:26.076Z,6.87
2017-07-11T10:54:54.366Z,6.83
2017-07-11T10:57:22.617Z,6.23
2017-07-11T10:59:50.086Z,5.73
2017-07-11T11:02:17.556Z,5.97
2017-07-11T11:04:45.827Z,5.40
2017-07-11T11:07:14.097Z,5.80
2017-07-11T11:09:42.376Z,5.20
2017-07-11T11:12:10.747Z,4.50
2017-07-11T11:14:38.228Z,4.37
2017-07-11T11:17:05.720Z,3.37
2017-07-11T11:19:33.219Z,3.47
2017-07-11T11:22:00.687Z,3.47
2017-07-11T11:24:28.188Z,3.00
2017-07-11T11:26:55.695Z,3.33
2017-07-11T11:29:24.001Z,3.40
2017-07-11T11:31:51.486Z,3.43
2017-07-11T11:34:19.006Z,4.10
2017-07-11T11:36:46.495Z,3.80
2017-07-11T11:39:14.035Z,3.57
2017-07-11T11:41:41.580Z,4.30
2017-07-11T11:44:09.040Z,4.13
2017-07-11T11:46:36.534Z,4.47
2017-07-11T11:49:04.010Z,3.40
2017-07-11T11:51:31.586Z,3.47
2017-07-11T11:53:59.835Z,4.10
2017-07-11T11:56:27.291Z,4.43
2017-07-11T11:58:54.776Z,4.10
2017-07-11T12:01:23.063Z,3.90
2017-07-11T12:03:51.283Z,3.70
2017-07-11T12:06:18.789Z,3.40
2017-07-11T12:08:47.012Z,3.80
2017-07-11T12:11:14.471Z,3.90
2017-07-11T12:13:41.947Z,4.10
2017-07-11T12:16:09.438Z,4.60
2017-07-11T12:18:37.702Z,5.63
2017-07-11T12:21:05.976Z,5.20
2017-07-11T12:23:33.443Z,5.00
2017-07-11T12:26:01.671Z,4.80
2017-07-11T12:28:29.259Z,5.33
2017-07-11T12:30:56.757Z,4.60
2017-07-11T12:33:24.259Z,4.73
2017-07-11T12:35:51.764Z,5.50
2017-07-11T12:38:19.222Z,5.40
2017-07-11T12:40:46.694Z,5.03
2017-07-11T12:43:14.166Z,4.60
2017-07-11T12:45:41.658Z,5.00
2017-07-11T12:48:09.230Z,4.87
2017-07-11T12:50:37.471Z,4.90
2017-07-11T12:53:05.138Z,3.60
2017-07-11T12:55:32.611Z,3.67
2017-07-11T12:58:00.078Z,3.60
2017-07-11T13:00:28.307Z,3.33
2017-07-11T13:02:55.797Z,3.47
2017-07-11T13:05:23.264Z,3.20
2017-07-11T13:07:51.513Z,3.80
2017-07-11T13:10:18.983Z,3.20
2017-07-11T13:12:46.448Z,3.47
2017-07-11T13:15:13.935Z,4.07
2017-07-11T13:17:41.515Z,3.73
2017-07-11T13:20:09.043Z,4.60
2017-07-11T13:22:37.298Z,4.40
2017-07-11T13:25:04.908Z,4.37
2017-07-11T13:27:32.393Z,4.20
2017-07-11T13:29:59.849Z,5.30
2017-07-11T13:32:27.426Z,5.10
2017-07-11T13:34:54.990Z,5.13
2017-07-11T13:37:22.482Z,5.37
2017-07-11T13:39:49.973Z,4.97
2017-07-11T13:42:17.455Z,5.50
2017-07-11T13:44:44.913Z,5.77
2017-07-11T13:47:12.668Z,5.57
2017-07-11T13:49:40.240Z,5.30
2017-07-11T13:52:07.722Z,5.10
2017-07-11T13:54:35.183Z,6.00
2017-07-11T13:57:02.647Z,6.07
2017-07-11T13:59:30.120Z,5.80
2017-07-11T14:01:57.637Z,5.83
2017-07-11T14:04:25.882Z,4.97
2017-07-11T14:06:53.338Z,5.13
2017-07-11T14:09:20.790Z,4.63
2017-07-11T14:11:48.367Z,3.57
2017-07-11T14:14:15.926Z,3.13
2017-07-11T14:16:43.471Z,3.10
2017-07-11T14:19:10.948Z,2.53
2017-07-11T14:21:39.179Z,2.67
2017-07-11T14:24:06.690Z,2.67
2017-07-11T14:26:34.954Z,2.30
2017-07-11T14:29:04.188Z,1.97
2017-07-11T14:31:31.667Z,2.10
2017-07-11T14:33:59.140Z,1.93
2017-07-11T14:36:26.611Z,1.53
2017-07-11T14:38:54.909Z,1.30
2017-07-11T14:41:22.504Z,2.00
2017-07-11T14:43:50.020Z,2.00
2017-07-11T14:46:18.269Z,1.60
2017-07-11T14:48:45.732Z,2.20
2017-07-11T14:51:13.224Z,2.23
2017-07-11T14:53:40.718Z,1.90
2017-07-11T14:56:08.237Z,1.90
2017-07-11T14:58:35.743Z,2.67
2017-07-11T15:01:04.030Z,2.33
2017-07-11T15:03:31.517Z,2.33
2017-07-11T15:05:58.956Z,2.50
2017-07-11T15:08:26.565Z,2.27
2017-07-11T15:10:54.130Z,3.40
2017-07-11T15:13:21.587Z,3.10
2017-07-11T15:15:49.050Z,3.30
2017-07-11T15:18:16.552Z,4.03
2017-07-11T15:20:44.058Z,3.17
2017-07-11T15:23:11.526Z,3.20
2017-07-11T15:25:38.994Z,3.80
2017-07-11T15:28:06.471Z,3.50
2017-07-11T15:30:34.010Z,3.00
2017-07-11T15:33:01.487Z,3.90
2017-07-11T15:35:28.959Z,3.83
2017-07-11T15:37:57.196Z,4.50
2017-07-11T15:40:24.683Z,5.03
2017-07-11T15:42:52.145Z,4.87
2017-07-11T15:45:19.627Z,3.80
2017-07-11T15:47:47.089Z,3.50
2017-07-11T15:50:14.575Z,4.13
2017-07-11T15:52:42.042Z,4.13
2017-07-11T15:55:09.507Z,4.77
2017-07-11T15:57:36.996Z,4.90
2017-07-11T16:00:05.223Z,4.53
2017-07-11T16:02:32.753Z,5.00
2017-07-11T16:05:00.232Z,5.20
2017-07-11T16:07:27.792Z,4.27
2017-07-11T16:09:55.292Z,4.40
2017-07-11T16:12:22.769Z,5.13
2017-07-11T16:14:50.260Z,4.30
2017-07-11T16:17:17.717Z,5.03
2017-07-11T16:19:45.227Z,6.63
2017-07-11T16:22:12.699Z,5.80
2017-07-11T16:24:40.163Z,6.50
2017-07-11T16:27:07.731Z,5.60
2017-07-11T16:29:35.218Z,8.90
2017-07-11T16:32:02.682Z,19.10
2017-07-11T16:34:30.175Z,6.80
2017-07-11T16:36:58.450Z,5.97
2017-07-11T16:39:26.710Z,9.50
2017-07-11T16:41:54.409Z,7.90
2017-07-11T16:44:21.894Z,8.10
2017-07-11T16:46:49.363Z,6.50
2017-07-11T16:49:16.863Z,7.70
2017-07-11T16:51:44.310Z,9.40
2017-07-11T16:54:11.783Z,8.07
2017-07-11T16:56:39.243Z,9.97
2017-07-11T16:59:06.745Z,8.20
2017-07-11T17:01:34.216Z,6.97
2017-07-11T17:04:01.668Z,5.53
2017-07-11T17:06:29.135Z,5.87
2017-07-11T17:08:56.630Z,5.67
2017-07-11T17:11:24.091Z,5.10
2017-07-11T17:13:51.534Z,4.40
2017-07-11T17:16:19.040Z,5.87
2017-07-11T17:41:53.690Z,10.20
2017-07-11T17:44:22.274Z,9.07
2017-07-11T17:46:50.536Z,11.00
2017-07-11T17:49:20.809Z,11.00
2017-07-11T17:51:49.143Z,8.83
2017-07-11T17:54:17.397Z,12.27
2017-07-11T17:56:44.891Z,9.57
2017-07-11T17:59:12.366Z,10.50
2017-07-11T18:01:41.675Z,11.13
2017-07-11T18:04:09.202Z,11.93
2017-07-11T18:06:37.434Z,9.60
2017-07-11T18:09:05.184Z,10.67
2017-07-11T18:11:32.678Z,10.27
2017-07-11T18:14:00.158Z,10.17
2017-07-11T18:16:27.690Z,10.17
2017-07-11T18:18:55.164Z,10.57
2017-07-11T18:21:22.705Z,8.57
2017-07-11T18:23:50.223Z,11.30
2017-07-11T18:26:17.690Z,10.20
2017-07-11T18:28:45.324Z,9.90
2017-07-11T18:31:12.821Z,11.17
2017-07-11T18:33:40.283Z,10.47
2017-07-11T18:36:07.775Z,11.77
2017-07-11T18:38:35.242Z,12.73
2017-07-11T18:41:02.703Z,13.63
2017-07-11T18:43:30.192Z,8.47
2017-07-11T18:45:57.680Z,7.67
2017-07-11T18:48:25.234Z,8.53
2017-07-11T18:50:52.703Z,9.10
2017-07-11T18:53:20.954Z,9.17
2017-07-11T18:55:48.565Z,9.87
2017-07-11T18:58:16.090Z,9.33
2017-07-11T19:00:43.551Z,10.90
2017-07-11T19:03:11.119Z,10.40
2017-07-11T19:05:39.623Z,13.70
2017-07-11T19:08:07.151Z,10.67
2017-07-11T19:10:35.428Z,11.03
2017-07-11T19:13:03.700Z,9.80
2017-07-11T19:15:31.987Z,11.10
2017-07-11T19:18:00.241Z,10.27
2017-07-11T19:20:27.713Z,10.40
2017-07-11T19:22:55.944Z,10.40
2017-07-11T19:25:23.417Z,11.23
2017-07-11T19:27:50.887Z,11.33
2017-07-11T19:30:18.352Z,10.93
2017-07-11T19:32:46.609Z,10.53
2017-07-11T19:35:14.075Z,10.13
2017-07-11T19:37:41.608Z,9.77
2017-07-11T19:40:09.078Z,10.30
2017-07-11T19:42:36.647Z,11.93
2017-07-11T19:45:04.129Z,12.10
2017-07-11T19:47:32.379Z,11.03
2017-07-11T19:49:59.872Z,10.93
2017-07-11T19:52:27.379Z,11.60
2017-07-11T19:54:54.872Z,11.67
2017-07-11T19:57:23.095Z,13.53
2017-07-11T19:59:50.580Z,12.20
2017-07-11T20:02:18.163Z,11.67
2017-07-11T20:04:45.652Z,10.90
2017-07-11T20:07:13.168Z,11.80
2017-07-11T20:09:40.645Z,12.33
2017-07-11T20:12:09.850Z,10.83
2017-07-11T20:14:41.266Z,12.37
2017-07-11T20:17:09.042Z,11.00
2017-07-11T20:19:37.182Z,12.13
2017-07-11T20:22:04.879Z,12.10
2017-07-11T20:24:33.126Z,12.73
2017-07-11T20:27:03.597Z,13.23
2017-07-11T20:29:31.549Z,11.20
2017-07-11T20:32:00.716Z,9.77
2017-07-11T20:34:29.820Z,10.50
2017-07-11T20:36:57.289Z,11.30
2017-07-11T20:39:25.575Z,10.40
2017-07-11T20:41:53.767Z,11.50
2017-07-11T20:44:22.142Z,15.13
2017-07-11T20:46:50.168Z,12.13
2017-07-11T20:49:17.751Z,13.03
2017-07-11T20:51:45.302Z,12.13
2017-07-11T20:54:12.780Z,11.90
2017-07-11T20:56:41.042Z,11.93
2017-07-11T20:59:09.489Z,13.70
2017-07-11T21:01:37.754Z,12.60
2017-07-11T21:04:05.230Z,13.67
2017-07-11T21:06:32.719Z,13.30
2017-07-11T21:09:01.005Z,11.60
2017-07-11T21:11:28.965Z,12.83
2017-07-11T21:13:56.460Z,14.67
2017-07-11T21:16:23.914Z,13.83
2017-07-11T21:18:53.471Z,13.03
2017-07-11T21:21:23.301Z,13.73
2017-07-11T21:23:52.804Z,12.90
2017-07-11T21:26:21.218Z,15.10
2017-07-11T21:28:49.725Z,12.80
2017-07-11T21:31:17.523Z,13.93
2017-07-11T21:33:45.765Z,13.20
2017-07-11T21:36:13.985Z,14.80
2017-07-11T21:38:42.590Z,14.23
2017-07-11T21:41:10.092Z,14.17
2017-07-11T21:43:37.584Z,13.97
2017-07-11T21:46:05.048Z,14.17
2017-07-11T21:48:32.520Z,12.87
2017-07-11T21:51:00.196Z,12.83
2017-07-11T21:53:28.488Z,13.67
2017-07-11T21:55:56.593Z,12.30
2017-07-11T21:58:24.856Z,12.13
2017-07-11T22:00:52.399Z,14.17
2017-07-11T22:03:19.910Z,12.60
2017-07-11T22:05:47.379Z,12.50
2017-07-11T22:08:14.879Z,12.70
2017-07-11T22:10:42.339Z,12.50
2017-07-11T22:13:09.884Z,12.90
2017-07-11T22:15:37.344Z,13.00
2017-07-11T22:18:04.811Z,11.77
2017-07-11T22:20:33.270Z,10.83
2017-07-11T22:23:00.755Z,10.70
2017-07-11T22:25:29.018Z,12.60
2017-07-11T22:27:57.293Z,12.20
2017-07-11T22:30:25.531Z,13.53
2017-07-11T22:32:53.008Z,12.50
2017-07-11T22:35:20.590Z,13.00
2017-07-11T22:37:48.861Z,13.73
2017-07-11T22:40:16.332Z,11.60
2017-07-11T22:42:44.570Z,11.10
2017-07-11T22:45:12.152Z,10.27
2017-07-11T22:47:40.149Z,10.93
2017-07-11T22:50:07.670Z,10.10
2017-07-11T22:52:35.227Z,11.80
2017-07-11T22:55:02.707Z,11.37
2017-07-11T22:57:31.057Z,9.70
2017-07-11T22:59:59.343Z,10.33
2017-07-11T23:02:26.835Z,12.60
2017-07-11T23:04:54.592Z,12.87
2017-07-11T23:07:22.933Z,11.73
2017-07-11T23:09:50.437Z,12.23
2017-07-11T23:12:17.930Z,11.07
2017-07-11T23:14:45.407Z,11.30
2017-07-11T23:17:12.867Z,11.53
2017-07-11T23:19:40.348Z,12.97
2017-07-11T23:22:08.598Z,11.20
2017-07-11T23:24:36.155Z,11.80
2017-07-11T23:27:03.629Z,11.60
2017-07-11T23:29:31.949Z,13.07
2017-07-11T23:31:59.460Z,15.17
2017-07-11T23:34:26.930Z,10.97
2017-07-11T23:36:55.163Z,13.37
2017-07-11T23:39:22.622Z,14.50
2017-07-11T23:41:50.203Z,13.33
2017-07-11T23:44:17.673Z,14.07
2017-07-11T23:46:45.930Z,15.70
2017-07-11T23:49:13.491Z,16.33
2017-07-11T23:51:40.948Z,14.90
2017-07-11T23:54:08.424Z,15.77
2017-07-11T23:56:36.785Z,13.77
2017-07-11T23:59:04.347Z,13.30
